Accueil
METAR-TAF:

METAR-TAF

Aéroports :

Pointe-Noire, Congo

Aéroport international Agostinho-Neto

latitude: 04-49S, longitude: 011-54E, altitude: 17 m

Observation

Le bulletin a été fait il y a 38 minutes, à 03:00 UTC
Vent 3 kt de est
Température 24°C
Humidité 100%
Pression 1012 hPa
Visibilité: 4000 m
Nuages épars à une hauteur de 1000 ft
Nuages épars à une hauteur de 2000 ft
brume

METAR: FCPP 260300Z 09003KT 4000 BR SCT010 SCT020 24/24 Q1012 NOSIG

Heure: 04:38 (03:38 UTC)

Prévision

Le bulletin a été fait il y a 4 heures et 38 minutes, à 23:00 UTC
Prévision valable du 26 à 00 UTC au 26 à 24 UTC
Vent 4 kt de sud/sud-ouest
Visibilité: 8000 m
Nuages épars à une hauteur de 1000 ft
Nuages fragmentés à une hauteur de 2300 ft
Probabilité 40%
du 26 à 05 UTC au 26 à 08 UTC
Visibilité: 3000 m
brume

TAF: FCPP 252300Z 2600/2624 20004KT 8000 SCT010 BKN023 PROB40 2605/2608 3000 BR

Observations et prévisions météorologiques de plus de 4000 aéroports (messages METAR et TAF).

Les stations disponibles sont représentées par des disques jaunes et rouges sur la carte.

Passer la souris dessus pour voir le nom de la station.

Cliquer dessus pour voir les observations et prévisions météorologiques.

Pour changer de carte: cliquez sur les boutons verts avec une croix noire pour zoomer, sur le bouton vert avec un tiret pour effectuer un zoom arrière, ou sur les flèches vertes pour les cartes adjacentes.


METAR-TAF: